Albrightsville, Pennsylvania
Current Conditions -  °F | °C
As of 12:33 PM on Wednesday 26 Nov 2014 (Local Time) from KMPO Reporting Station
Heavy Snow Heavy Snow  
Wind Chill: 25°   Ceiling: 700
Heat Index: 31°   Visibility: 0.25mi
Dew Point: 28°   Wind: 6mph
Humidity: 89%   Direction: 340°NNW
Pressure: 29.98"   Gusts: NA
Location:  41°N, 75.53°W
Report Text: KMPO 261733Z AUTO 34005KT 1/4SM +SN FZFG BKN007 OVC011 M01/M02 A2998 RMK AO2 P0006 T10061022
Loading
Personal Weather Stations






























Interactive Weather Map New forecast layout! Learn more

10-Day Weather Forecast

Advertisements
Track Severe Weather on mobile